sensor_id;sensor_type;location;lat;lon;timestamp;pressure;altitude;pressure_sealevel;temperature
13570;BMP180;6856;51.460;7.158;2022-07-29T00:22:42;100498.00;;;23.90
13570;BMP180;6856;51.460;7.158;2022-07-29T00:25:17;100490.00;;;23.90
13570;BMP180;6856;51.460;7.158;2022-07-29T00:27:51;100490.00;;;23.90
13570;BMP180;6856;51.460;7.158;2022-07-29T00:30:25;100449.00;;;23.90
13570;BMP180;6856;51.460;7.158;2022-07-29T00:33:00;100491.00;;;23.90
13570;BMP180;6856;51.460;7.158;2022-07-29T00:35:40;100469.00;;;24.00
13570;BMP180;6856;51.460;7.158;2022-07-29T00:38:20;100475.00;;;23.90
13570;BMP180;6856;51.460;7.158;2022-07-29T00:40:54;100467.00;;;23.90
13570;BMP180;6856;51.460;7.158;2022-07-29T00:43:28;100473.00;;;23.90
13570;BMP180;6856;51.460;7.158;2022-07-29T00:46:03;100462.00;;;23.90
13570;BMP180;6856;51.460;7.158;2022-07-29T00:48:37;100456.00;;;23.80
13570;BMP180;6856;51.460;7.158;2022-07-29T00:51:15;100455.00;;;23.80
13570;BMP180;6856;51.460;7.158;2022-07-29T00:53:51;100454.00;;;23.80
13570;BMP180;6856;51.460;7.158;2022-07-29T00:56:26;100449.00;;;23.80
13570;BMP180;6856;51.460;7.158;2022-07-29T00:59:00;100440.00;;;23.80
13570;BMP180;6856;51.460;7.158;2022-07-29T01:01:34;100440.00;;;23.80
13570;BMP180;6856;51.460;7.158;2022-07-29T01:04:08;100429.00;;;23.70
13570;BMP180;6856;51.460;7.158;2022-07-29T01:06:43;100422.00;;;23.70
13570;BMP180;6856;51.460;7.158;2022-07-29T01:09:20;100432.00;;;23.70
13570;BMP180;6856;51.460;7.158;2022-07-29T01:12:17;100430.00;;;23.60
13570;BMP180;6856;51.460;7.158;2022-07-29T01:14:54;100446.00;;;23.70
13570;BMP180;6856;51.460;7.158;2022-07-29T01:17:37;100418.00;;;23.60
13570;BMP180;6856;51.460;7.158;2022-07-29T01:20:33;100441.00;;;23.60
13570;BMP180;6856;51.460;7.158;2022-07-29T01:23:48;100421.00;;;23.60
13570;BMP180;6856;51.460;7.158;2022-07-29T01:26:42;100427.00;;;23.60
13570;BMP180;6856;51.460;7.158;2022-07-29T01:29:26;100411.00;;;23.50
13570;BMP180;6856;51.460;7.158;2022-07-29T01:32:16;100416.00;;;23.50
13570;BMP180;6856;51.460;7.158;2022-07-29T01:35:06;100415.00;;;23.50
13570;BMP180;6856;51.460;7.158;2022-07-29T01:37:50;100406.00;;;23.50
13570;BMP180;6856;51.460;7.158;2022-07-29T01:40:36;100395.00;;;23.50
13570;BMP180;6856;51.460;7.158;2022-07-29T01:43:21;100407.00;;;23.40
13570;BMP180;6856;51.460;7.158;2022-07-29T01:46:01;100416.00;;;23.40
13570;BMP180;6856;51.460;7.158;2022-07-29T01:48:43;100409.00;;;23.40
13570;BMP180;6856;51.460;7.158;2022-07-29T01:51:30;100400.00;;;23.40
13570;BMP180;6856;51.460;7.158;2022-07-29T01:54:13;100399.00;;;23.40
13570;BMP180;6856;51.460;7.158;2022-07-29T01:56:53;100395.00;;;23.30
13570;BMP180;6856;51.460;7.158;2022-07-29T01:59:34;100389.00;;;23.30
13570;BMP180;6856;51.460;7.158;2022-07-29T02:02:13;100393.00;;;23.30
13570;BMP180;6856;51.460;7.158;2022-07-29T02:04:52;100389.00;;;23.30
13570;BMP180;6856;51.460;7.158;2022-07-29T02:07:29;100379.00;;;23.30
13570;BMP180;6856;51.460;7.158;2022-07-29T02:10:09;100385.00;;;23.30
13570;BMP180;6856;51.460;7.158;2022-07-29T02:12:46;100391.00;;;23.30
13570;BMP180;6856;51.460;7.158;2022-07-29T02:15:24;100381.00;;;23.30
13570;BMP180;6856;51.460;7.158;2022-07-29T02:18:04;100380.00;;;23.30
13570;BMP180;6856;51.460;7.158;2022-07-29T02:20:42;100370.00;;;23.30
13570;BMP180;6856;51.460;7.158;2022-07-29T02:23:22;100377.00;;;23.30
13570;BMP180;6856;51.460;7.158;2022-07-29T02:25:58;100383.00;;;23.30
13570;BMP180;6856;51.460;7.158;2022-07-29T02:28:33;100373.00;;;23.30
13570;BMP180;6856;51.460;7.158;2022-07-29T02:31:09;100372.00;;;23.30
13570;BMP180;6856;51.460;7.158;2022-07-29T02:33:47;100370.00;;;23.20
13570;BMP180;6856;51.460;7.158;2022-07-29T02:36:23;100365.00;;;23.20
13570;BMP180;6856;51.460;7.158;2022-07-29T02:38:59;100366.00;;;23.20
13570;BMP180;6856;51.460;7.158;2022-07-29T02:41:42;100370.00;;;23.20
13570;BMP180;6856;51.460;7.158;2022-07-29T02:44:21;100373.00;;;23.20
13570;BMP180;6856;51.460;7.158;2022-07-29T02:47:04;100378.00;;;23.20
13570;BMP180;6856;51.460;7.158;2022-07-29T02:49:53;100382.00;;;23.20
13570;BMP180;6856;51.460;7.158;2022-07-29T02:52:39;100387.00;;;23.10
13570;BMP180;6856;51.460;7.158;2022-07-29T02:55:21;100384.00;;;23.20
13570;BMP180;6856;51.460;7.158;2022-07-29T02:58:02;100388.00;;;23.20
13570;BMP180;6856;51.460;7.158;2022-07-29T03:00:39;100383.00;;;23.10
13570;BMP180;6856;51.460;7.158;2022-07-29T03:03:18;100379.00;;;23.10
13570;BMP180;6856;51.460;7.158;2022-07-29T03:05:56;100382.00;;;23.10
13570;BMP180;6856;51.460;7.158;2022-07-29T03:08:32;100375.00;;;23.10
13570;BMP180;6856;51.460;7.158;2022-07-29T03:11:08;100361.00;;;23.10
13570;BMP180;6856;51.460;7.158;2022-07-29T03:13:43;100365.00;;;23.10
13570;BMP180;6856;51.460;7.158;2022-07-29T03:16:19;100377.00;;;23.10
13570;BMP180;6856;51.460;7.158;2022-07-29T03:18:55;100370.00;;;23.10
13570;BMP180;6856;51.460;7.158;2022-07-29T03:21:31;100373.00;;;23.10
13570;BMP180;6856;51.460;7.158;2022-07-29T03:24:06;100382.00;;;23.10
13570;BMP180;6856;51.460;7.158;2022-07-29T03:26:44;100386.00;;;23.00
13570;BMP180;6856;51.460;7.158;2022-07-29T03:29:18;100361.00;;;23.00
13570;BMP180;6856;51.460;7.158;2022-07-29T03:31:53;100386.00;;;23.00
13570;BMP180;6856;51.460;7.158;2022-07-29T03:34:32;100402.00;;;23.00
13570;BMP180;6856;51.460;7.158;2022-07-29T03:37:07;100403.00;;;22.90
13570;BMP180;6856;51.460;7.158;2022-07-29T03:39:45;100397.00;;;22.90
13570;BMP180;6856;51.460;7.158;2022-07-29T03:42:24;100410.00;;;22.80
13570;BMP180;6856;51.460;7.158;2022-07-29T03:45:09;100395.00;;;22.70
13570;BMP180;6856;51.460;7.158;2022-07-29T03:47:52;100404.00;;;22.70
13570;BMP180;6856;51.460;7.158;2022-07-29T03:50:33;100415.00;;;22.60
13570;BMP180;6856;51.460;7.158;2022-07-29T03:53:10;100403.00;;;22.60
13570;BMP180;6856;51.460;7.158;2022-07-29T03:55:51;100395.00;;;22.50
13570;BMP180;6856;51.460;7.158;2022-07-29T03:58:27;100407.00;;;22.50
13570;BMP180;6856;51.460;7.158;2022-07-29T04:01:07;100407.00;;;22.50
13570;BMP180;6856;51.460;7.158;2022-07-29T04:03:42;100426.00;;;22.50
13570;BMP180;6856;51.460;7.158;2022-07-29T04:06:18;100419.00;;;22.50
13570;BMP180;6856;51.460;7.158;2022-07-29T04:08:54;100431.00;;;22.50
13570;BMP180;6856;51.460;7.158;2022-07-29T04:11:28;100426.00;;;22.40
13570;BMP180;6856;51.460;7.158;2022-07-29T04:14:03;100433.00;;;22.40
13570;BMP180;6856;51.460;7.158;2022-07-29T04:16:37;100451.00;;;22.40
13570;BMP180;6856;51.460;7.158;2022-07-29T04:19:11;100436.00;;;22.40
13570;BMP180;6856;51.460;7.158;2022-07-29T04:21:45;100461.00;;;22.40
13570;BMP180;6856;51.460;7.158;2022-07-29T04:24:21;100481.00;;;22.30
13570;BMP180;6856;51.460;7.158;2022-07-29T04:26:55;100417.00;;;22.30
13570;BMP180;6856;51.460;7.158;2022-07-29T04:29:30;100461.00;;;22.30
13570;BMP180;6856;51.460;7.158;2022-07-29T04:32:05;100462.00;;;22.20
13570;BMP180;6856;51.460;7.158;2022-07-29T04:34:42;100458.00;;;22.20
13570;BMP180;6856;51.460;7.158;2022-07-29T04:37:18;100459.00;;;22.10
13570;BMP180;6856;51.460;7.158;2022-07-29T04:39:54;100462.00;;;22.10
13570;BMP180;6856;51.460;7.158;2022-07-29T04:42:29;100466.00;;;22.10
13570;BMP180;6856;51.460;7.158;2022-07-29T04:45:04;100466.00;;;22.00
13570;BMP180;6856;51.460;7.158;2022-07-29T04:47:39;100466.00;;;22.00
13570;BMP180;6856;51.460;7.158;2022-07-29T04:50:14;100433.00;;;21.90
13570;BMP180;6856;51.460;7.158;2022-07-29T04:52:49;100475.00;;;21.90
13570;BMP180;6856;51.460;7.158;2022-07-29T04:55:25;100481.00;;;21.90
13570;BMP180;6856;51.460;7.158;2022-07-29T04:57:59;100463.00;;;21.90
13570;BMP180;6856;51.460;7.158;2022-07-29T05:00:34;100456.00;;;21.90
13570;BMP180;6856;51.460;7.158;2022-07-29T05:03:09;100417.00;;;21.90
13570;BMP180;6856;51.460;7.158;2022-07-29T05:05:43;100461.00;;;21.90
13570;BMP180;6856;51.460;7.158;2022-07-29T05:08:18;100464.00;;;21.80
13570;BMP180;6856;51.460;7.158;2022-07-29T05:10:54;100464.00;;;21.90
13570;BMP180;6856;51.460;7.158;2022-07-29T05:13:34;100461.00;;;21.90
13570;BMP180;6856;51.460;7.158;2022-07-29T05:16:18;100454.00;;;21.90
13570;BMP180;6856;51.460;7.158;2022-07-29T05:18:52;100459.00;;;21.90
13570;BMP180;6856;51.460;7.158;2022-07-29T05:21:26;100454.00;;;21.90
13570;BMP180;6856;51.460;7.158;2022-07-29T05:24:06;100454.00;;;21.90
13570;BMP180;6856;51.460;7.158;2022-07-29T05:26:43;100438.00;;;21.90
13570;BMP180;6856;51.460;7.158;2022-07-29T05:29:18;100451.00;;;21.90
13570;BMP180;6856;51.460;7.158;2022-07-29T05:32:12;100452.00;;;21.90
13570;BMP180;6856;51.460;7.158;2022-07-29T05:34:47;100459.00;;;21.90
13570;BMP180;6856;51.460;7.158;2022-07-29T05:37:23;100412.00;;;21.80
13570;BMP180;6856;51.460;7.158;2022-07-29T05:39:57;100454.00;;;21.90
13570;BMP180;6856;51.460;7.158;2022-07-29T05:42:33;100454.00;;;21.90
13570;BMP180;6856;51.460;7.158;2022-07-29T05:45:08;100456.00;;;21.90
13570;BMP180;6856;51.460;7.158;2022-07-29T05:47:44;100449.00;;;21.90
13570;BMP180;6856;51.460;7.158;2022-07-29T05:50:18;100441.00;;;21.90
13570;BMP180;6856;51.460;7.158;2022-07-29T05:52:55;100425.00;;;22.00
13570;BMP180;6856;51.460;7.158;2022-07-29T05:55:29;100435.00;;;21.90
13570;BMP180;6856;51.460;7.158;2022-07-29T05:58:05;100432.00;;;21.90
13570;BMP180;6856;51.460;7.158;2022-07-29T06:00:41;100441.00;;;21.90
13570;BMP180;6856;51.460;7.158;2022-07-29T06:03:15;100454.00;;;21.90
13570;BMP180;6856;51.460;7.158;2022-07-29T06:05:49;100448.00;;;21.90
13570;BMP180;6856;51.460;7.158;2022-07-29T06:08:24;100446.00;;;22.00
13570;BMP180;6856;51.460;7.158;2022-07-29T06:10:58;100447.00;;;22.00
13570;BMP180;6856;51.460;7.158;2022-07-29T06:13:35;100466.00;;;22.00
13570;BMP180;6856;51.460;7.158;2022-07-29T06:16:09;100455.00;;;22.00
13570;BMP180;6856;51.460;7.158;2022-07-29T06:19:00;100469.00;;;22.00
13570;BMP180;6856;51.460;7.158;2022-07-29T06:21:42;100468.00;;;22.00
13570;BMP180;6856;51.460;7.158;2022-07-29T06:24:17;100465.00;;;22.00
13570;BMP180;6856;51.460;7.158;2022-07-29T06:26:52;100458.00;;;22.00
13570;BMP180;6856;51.460;7.158;2022-07-29T06:29:28;100453.00;;;22.00
13570;BMP180;6856;51.460;7.158;2022-07-29T06:32:04;100446.00;;;22.00
13570;BMP180;6856;51.460;7.158;2022-07-29T06:34:38;100455.00;;;22.00
13570;BMP180;6856;51.460;7.158;2022-07-29T06:37:16;100431.00;;;22.10
13570;BMP180;6856;51.460;7.158;2022-07-29T06:39:51;100457.00;;;22.10
13570;BMP180;6856;51.460;7.158;2022-07-29T06:42:48;100462.00;;;22.10
13570;BMP180;6856;51.460;7.158;2022-07-29T06:45:25;100413.00;;;22.10
13570;BMP180;6856;51.460;7.158;2022-07-29T06:48:02;100453.00;;;22.10
13570;BMP180;6856;51.460;7.158;2022-07-29T06:50:37;100460.00;;;22.10
13570;BMP180;6856;51.460;7.158;2022-07-29T06:53:12;100456.00;;;22.10
13570;BMP180;6856;51.460;7.158;2022-07-29T06:55:47;100466.00;;;22.20
13570;BMP180;6856;51.460;7.158;2022-07-29T06:58:21;100465.00;;;22.20
13570;BMP180;6856;51.460;7.158;2022-07-29T07:00:58;100467.00;;;22.20
13570;BMP180;6856;51.460;7.158;2022-07-29T07:03:36;100463.00;;;22.10
13570;BMP180;6856;51.460;7.158;2022-07-29T07:06:11;100476.00;;;22.20
13570;BMP180;6856;51.460;7.158;2022-07-29T07:08:46;100462.00;;;22.30
13570;BMP180;6856;51.460;7.158;2022-07-29T07:11:21;100480.00;;;22.30
13570;BMP180;6856;51.460;7.158;2022-07-29T07:13:55;100477.00;;;22.40
13570;BMP180;6856;51.460;7.158;2022-07-29T07:16:36;100473.00;;;22.40
13570;BMP180;6856;51.460;7.158;2022-07-29T07:19:10;100477.00;;;22.50
13570;BMP180;6856;51.460;7.158;2022-07-29T07:21:45;100481.00;;;22.60
13570;BMP180;6856;51.460;7.158;2022-07-29T07:24:20;100483.00;;;22.70
13570;BMP180;6856;51.460;7.158;2022-07-29T07:26:56;100489.00;;;22.70
13570;BMP180;6856;51.460;7.158;2022-07-29T07:29:31;100495.00;;;22.80
13570;BMP180;6856;51.460;7.158;2022-07-29T07:32:07;100476.00;;;22.80
13570;BMP180;6856;51.460;7.158;2022-07-29T07:34:41;100493.00;;;22.90
13570;BMP180;6856;51.460;7.158;2022-07-29T07:37:17;100506.00;;;22.90
13570;BMP180;6856;51.460;7.158;2022-07-29T07:39:53;100512.00;;;23.00
13570;BMP180;6856;51.460;7.158;2022-07-29T07:42:27;100509.00;;;23.00
13570;BMP180;6856;51.460;7.158;2022-07-29T07:45:02;100506.00;;;23.10
13570;BMP180;6856;51.460;7.158;2022-07-29T07:47:47;100517.00;;;23.10
13570;BMP180;6856;51.460;7.158;2022-07-29T07:50:25;100505.00;;;23.20
13570;BMP180;6856;51.460;7.158;2022-07-29T07:53:00;100498.00;;;23.20
13570;BMP180;6856;51.460;7.158;2022-07-29T07:55:40;100499.00;;;23.30
13570;BMP180;6856;51.460;7.158;2022-07-29T07:58:34;100465.00;;;23.30
13570;BMP180;6856;51.460;7.158;2022-07-29T08:01:09;100499.00;;;23.40
13570;BMP180;6856;51.460;7.158;2022-07-29T08:03:46;100511.00;;;23.40
13570;BMP180;6856;51.460;7.158;2022-07-29T08:06:20;100498.00;;;23.40
13570;BMP180;6856;51.460;7.158;2022-07-29T08:08:57;100499.00;;;23.50
13570;BMP180;6856;51.460;7.158;2022-07-29T08:11:58;100508.00;;;23.50
13570;BMP180;6856;51.460;7.158;2022-07-29T08:14:35;100522.00;;;23.50
13570;BMP180;6856;51.460;7.158;2022-07-29T08:17:11;100524.00;;;23.60
13570;BMP180;6856;51.460;7.158;2022-07-29T08:19:47;100531.00;;;23.60
13570;BMP180;6856;51.460;7.158;2022-07-29T08:22:22;100528.00;;;23.70
13570;BMP180;6856;51.460;7.158;2022-07-29T08:24:57;100526.00;;;23.70
13570;BMP180;6856;51.460;7.158;2022-07-29T08:27:31;100501.00;;;23.70
13570;BMP180;6856;51.460;7.158;2022-07-29T08:30:15;100513.00;;;23.80
13570;BMP180;6856;51.460;7.158;2022-07-29T08:32:49;100492.00;;;23.80
13570;BMP180;6856;51.460;7.158;2022-07-29T08:35:29;100518.00;;;23.80
13570;BMP180;6856;51.460;7.158;2022-07-29T08:38:07;100511.00;;;23.80
13570;BMP180;6856;51.460;7.158;2022-07-29T08:40:42;100517.00;;;23.90
13570;BMP180;6856;51.460;7.158;2022-07-29T08:43:17;100513.00;;;23.90
13570;BMP180;6856;51.460;7.158;2022-07-29T08:45:52;100506.00;;;23.90
13570;BMP180;6856;51.460;7.158;2022-07-29T08:48:26;100502.00;;;24.00
13570;BMP180;6856;51.460;7.158;2022-07-29T08:51:02;100501.00;;;24.00
13570;BMP180;6856;51.460;7.158;2022-07-29T08:53:36;100516.00;;;24.00
13570;BMP180;6856;51.460;7.158;2022-07-29T08:56:15;100506.00;;;24.00
13570;BMP180;6856;51.460;7.158;2022-07-29T08:58:50;100506.00;;;24.10
13570;BMP180;6856;51.460;7.158;2022-07-29T09:01:29;100509.00;;;24.10
13570;BMP180;6856;51.460;7.158;2022-07-29T09:04:15;100526.00;;;24.10
13570;BMP180;6856;51.460;7.158;2022-07-29T09:06:53;100518.00;;;24.10
13570;BMP180;6856;51.460;7.158;2022-07-29T09:09:28;100535.00;;;24.00
13570;BMP180;6856;51.460;7.158;2022-07-29T09:12:03;100541.00;;;24.00
13570;BMP180;6856;51.460;7.158;2022-07-29T09:14:43;100535.00;;;24.00
13570;BMP180;6856;51.460;7.158;2022-07-29T09:17:39;100525.00;;;23.80
13570;BMP180;6856;51.460;7.158;2022-07-29T09:20:16;100497.00;;;23.80
13570;BMP180;6856;51.460;7.158;2022-07-29T09:22:53;100527.00;;;23.80
13570;BMP180;6856;51.460;7.158;2022-07-29T09:25:34;100532.00;;;23.80
13570;BMP180;6856;51.460;7.158;2022-07-29T09:28:10;100525.00;;;23.80
13570;BMP180;6856;51.460;7.158;2022-07-29T09:30:52;100519.00;;;23.70
13570;BMP180;6856;51.460;7.158;2022-07-29T09:33:33;100517.00;;;23.70
13570;BMP180;6856;51.460;7.158;2022-07-29T09:36:10;100517.00;;;23.70
13570;BMP180;6856;51.460;7.158;2022-07-29T09:38:57;100504.00;;;23.70
13570;BMP180;6856;51.460;7.158;2022-07-29T09:41:46;100504.00;;;23.70
13570;BMP180;6856;51.460;7.158;2022-07-29T09:44:22;100496.00;;;23.70
13570;BMP180;6856;51.460;7.158;2022-07-29T09:47:00;100498.00;;;23.70
13570;BMP180;6856;51.460;7.158;2022-07-29T09:49:53;100498.00;;;23.80
13570;BMP180;6856;51.460;7.158;2022-07-29T09:52:29;100491.00;;;23.70
13570;BMP180;6856;51.460;7.158;2022-07-29T09:55:09;100495.00;;;23.70
13570;BMP180;6856;51.460;7.158;2022-07-29T09:57:50;100492.00;;;23.80
13570;BMP180;6856;51.460;7.158;2022-07-29T10:00:25;100489.00;;;23.80
13570;BMP180;6856;51.460;7.158;2022-07-29T10:03:00;100492.00;;;23.80
13570;BMP180;6856;51.460;7.158;2022-07-29T10:05:35;100455.00;;;23.80
13570;BMP180;6856;51.460;7.158;2022-07-29T10:08:11;100470.00;;;23.80
13570;BMP180;6856;51.460;7.158;2022-07-29T22:27:40;100638.00;;;24.70
13570;BMP180;6856;51.460;7.158;2022-07-29T22:30:14;100644.00;;;24.70
13570;BMP180;6856;51.460;7.158;2022-07-29T22:32:48;100634.00;;;24.70
13570;BMP180;6856;51.460;7.158;2022-07-29T22:35:21;100632.00;;;24.70
13570;BMP180;6856;51.460;7.158;2022-07-29T22:37:55;100634.00;;;24.70
13570;BMP180;6856;51.460;7.158;2022-07-29T22:40:28;100636.00;;;24.60
13570;BMP180;6856;51.460;7.158;2022-07-29T22:43:06;100637.00;;;24.60
13570;BMP180;6856;51.460;7.158;2022-07-29T22:45:40;100625.00;;;24.60
13570;BMP180;6856;51.460;7.158;2022-07-29T22:48:14;100622.00;;;24.60
13570;BMP180;6856;51.460;7.158;2022-07-29T22:50:47;100603.00;;;24.60
13570;BMP180;6856;51.460;7.158;2022-07-29T22:53:21;100618.00;;;24.60
13570;BMP180;6856;51.460;7.158;2022-07-29T22:55:54;100617.00;;;24.60
13570;BMP180;6856;51.460;7.158;2022-07-29T22:58:29;100621.00;;;24.60
13570;BMP180;6856;51.460;7.158;2022-07-29T23:01:03;100621.00;;;24.60
13570;BMP180;6856;51.460;7.158;2022-07-29T23:03:40;100618.00;;;24.60
13570;BMP180;6856;51.460;7.158;2022-07-29T23:06:22;100616.00;;;24.60
13570;BMP180;6856;51.460;7.158;2022-07-29T23:08:55;100617.00;;;24.60
13570;BMP180;6856;51.460;7.158;2022-07-29T23:11:29;100583.00;;;24.60
13570;BMP180;6856;51.460;7.158;2022-07-29T23:14:04;100600.00;;;24.60
13570;BMP180;6856;51.460;7.158;2022-07-29T23:16:40;100598.00;;;24.60
13570;BMP180;6856;51.460;7.158;2022-07-29T23:19:15;100602.00;;;24.60
13570;BMP180;6856;51.460;7.158;2022-07-29T23:21:48;100613.00;;;24.60
13570;BMP180;6856;51.460;7.158;2022-07-29T23:24:22;100610.00;;;24.60
13570;BMP180;6856;51.460;7.158;2022-07-29T23:26:55;100607.00;;;24.60
13570;BMP180;6856;51.460;7.158;2022-07-29T23:29:30;100609.00;;;24.60
13570;BMP180;6856;51.460;7.158;2022-07-29T23:32:08;100609.00;;;24.60
13570;BMP180;6856;51.460;7.158;2022-07-29T23:34:41;100610.00;;;24.60
13570;BMP180;6856;51.460;7.158;2022-07-29T23:37:15;100598.00;;;24.50
13570;BMP180;6856;51.460;7.158;2022-07-29T23:39:48;100594.00;;;24.50
13570;BMP180;6856;51.460;7.158;2022-07-29T23:42:22;100596.00;;;24.50
13570;BMP180;6856;51.460;7.158;2022-07-29T23:44:57;100598.00;;;24.50
13570;BMP180;6856;51.460;7.158;2022-07-29T23:47:31;100589.00;;;24.50
13570;BMP180;6856;51.460;7.158;2022-07-29T23:50:05;100577.00;;;24.50
13570;BMP180;6856;51.460;7.158;2022-07-29T23:52:39;100586.00;;;24.50
13570;BMP180;6856;51.460;7.158;2022-07-29T23:55:13;100594.00;;;24.40
13570;BMP180;6856;51.460;7.158;2022-07-29T23:58:08;100581.00;;;24.40
